AirNav   Phillips 66 Aviation Fuel
 
 990 users online  

C24 Mineral County Memorial Airport
Creede, Colorado, USA

GOING TO CREEDE?


FAA INFORMATION EFFECTIVE 29 MARCH 2018

Location

FAA Identifier: C24
Lat/Long: 37-49-19.8000N / 106-55-47.6000W
37-49.330000N / 106-55.793333W
37.8221667 / -106.9298889
(estimated)
Elevation: 8680 ft. / 2646 m (estimated)
Variation: 12E (1985)
From city: 2 miles E of CREEDE, CO
Time zone: UTC -6 (UTC -7 during Standard Time)
Zip code: 81130

Airport Operations

Airport use: Open to the public
Activation date: 09/1942
Control tower: no
ARTCC: DENVER CENTER
FSS: DENVER FLIGHT SERVICE STATION
NOTAMs facility: DEN (NOTAM-D service available)
Attendance: UNATNDD
Wind indicator: yes
Segmented circle: no

Airport Communications

CTAF: 122.9

Nearby radio navigation aids

VOR radial/distance  VOR name  Freq  Var
HBUr158/38.2BLUE MESA VOR/DME114.9014E

Airport Services

Fuel available: 100LL JET-A
Parking: tiedowns
Airframe service: NONE
Powerplant service: NONE
Bottled oxygen: NONE
Bulk oxygen: NONE

Runway Information

Runway 7/25

Dimensions: 6880 x 60 ft. / 2097 x 18 m
Surface: asphalt, in fair condition
Weight bearing capacity: 
Single wheel: 12.5
RUNWAY 7  RUNWAY 25
Latitude: 37-49.261500N37-49.397833N
Longitude: 106-56.502667W106-55.083500W
Elevation: 8630.0 ft.
Gradient: 0.7%0.7%
Traffic pattern: leftleft
Displaced threshold: 188 ft.no
Markings: basic, in fair conditionbasic, in fair condition
Obstructions: none11 ft. road, 520 ft. from runway, 29:1 slope to clear
LARGE ROCKS 20' TO 200' FROM RUNWAY END.

Airport Ownership and Management from official FAA records

Ownership: Publicly-owned
Owner: MINERAL COUNTY
BOX 70
CREEDE, CO 81130
Phone 719-658-2331
Manager: LES CAHILL-CO ADMINISTRATOR
BOX 70
CREEDE, CO 81130
Phone 719-658-2360
719-658-2600 CO SHERIFF 24 HRS.

Airport Operational Statistics

Aircraft based on the field: 3
Single engine airplanes: 3
    
Aircraft operations: avg 38/week *
75% transient general aviation
25% local general aviation
* for 12-month period ending 31 December 2014

Additional Remarks

MOUNTAINS IN ALL DIRECTIONS.
DEPARTURE TO NE AVOID OVERFLIGHT OF TRAILERS & RESIDENTIAL HOMES; CLIMB TO +200' AGL ON CNTRLN EXTDD PRIOR TO TURN.
GLIDER & HANG GLIDER ACTIVITY ON & INVOF ARPT.
ELK & DEER ON AND INVOF ARPT.

Instrument Procedures

There are no published instrument procedures at C24.

Some nearby airports with instrument procedures:

KRCV - Astronaut Kent Rominger Airport (28 nm E)
KPSO - Stevens Field Airport (33 nm S)
KGUC - Gunnison-Crested Butte Regional Airport (43 nm N)
KMVI - Monte Vista Municipal Airport (46 nm E)
KTEX - Telluride Regional Airport (47 nm W)
 
Loc | Ops | Rwys | IFR | FBO | Links
Com | Nav | Svcs | Stats | Notes

AirNav Hotels Sweepstakes
 
Area around C24 (Mineral County Memorial Airport)
 
Road maps at: MapQuest Bing Google
 
Aerial photo
WARNING: Photo may not be current or correct
Aerial photo of C24 (Mineral County Memorial Airport)
Do you have a better or more recent aerial photo of Mineral County Memorial Airport that you would like to share? If so, please send us your photo.

 
Sectional chart

 
Airport distance calculator
Flying to Mineral County Memorial Airport? Find the distance to fly.

From to C24

Sunrise and sunset
Times for 22-Apr-2018
 Local
(UTC-6)
 Zulu
(UTC)
Morning civil twilight05:5611:56
Sunrise06:2412:24
Sunset19:4901:49
Evening civil twilight20:1602:16

Current date and time
Zulu (UTC)  22-Apr-2018 20:08:58
Local (UTC-6)  22-Apr-2018 14:08:58
 
METAR
KCPW 
23nm S 
221948Z AUTO 16004KT 10SM SCT070 08/M08 A3042 RMK AO2
KRCV 
28nm E 
221955Z AUTO 06003KT 10SM CLR 16/M06 A3020 RMK AO2 T01561060
KPSO 
33nm S 
221955Z AUTO 00000KT 10SM CLR 18/M11 A3017 RMK AO2 T01751113
KGUC 
42nm N 
221956Z AUTO 21003KT 10SM CLR 14/M04 A3020 RMK AO2 SLP203 T01391044
TAF
KGUC 
42nm N 
221739Z 2218/2318 VRB03KT P6SM FEW250 FM222100 18007KT P6SM SCT200 FM230200 03006KT P6SM SCT120 FM231700 25006KT P6SM SCT200
KTEX 
47nm W 
221739Z 2218/2318 25006KT P6SM FEW250 FM222100 20007KT P6SM SCT200 FM222200 23007KT P6SM BKN120 FM230200 17005KT P6SM BKN120 FM231700 24009KT P6SM SCT200
NOTAMs
Click for the latest NOTAMs
NOTAMs are issued by the DoD/FAA and will open in a separate window not controlled by AirNav.

 

 
 

FBO, Fuel Providers, and Aircraft Ground Support

  
 Business Name 
 
 Contact 
 
 Services / Description 
 
Fuel Prices
 
Comments
  
Mineral County Memorial Airport 719-658-2360
no information available

If you are affiliated with Mineral County Memorial Airport and would like to show here your services, contact info, web link, logo, and more, click here
100LL Jet A
SS $4.85 $4.75 
 Updated 28-Jul-2017
 
   write
SS=Self service
Update Fuel Prices
 

Would you like to see your business listed on this page?

 If your business provides an interesting product or service to pilots, flight crews, aircraft, or users of the Mineral County Memorial Airport, you should consider listing it here.  To start the listing process, click on the button below
 
Add a business
 

Other Pages about Mineral County Memorial Airport

www.flycolorado.org/...
 
Update a link
 
Copyright © AirNav, LLC. All rights reserved. Privacy Policy  Contact